createdAt,value
2018-10-05T00:00:12.536Z,90.60
2018-10-05T00:02:41.483Z,90.50
2018-10-05T00:05:11.649Z,90.50
2018-10-05T00:07:42.065Z,90.50
2018-10-05T00:10:13.006Z,90.50
2018-10-05T00:12:43.478Z,90.90
2018-10-05T00:15:13.458Z,90.50
2018-10-05T00:17:43.536Z,90.30
2018-10-05T00:20:14.192Z,90.40
2018-10-05T00:22:44.737Z,90.30
2018-10-05T00:25:15.176Z,90.20
2018-10-05T00:27:45.013Z,90.20
2018-10-05T00:30:16.230Z,90.80
2018-10-05T00:32:48.389Z,90.40
2018-10-05T00:35:19.295Z,90.40
2018-10-05T00:37:49.624Z,90.50
2018-10-05T00:40:21.461Z,90.50
2018-10-05T00:42:51.621Z,90.40
2018-10-05T00:45:23.213Z,90.30
2018-10-05T00:47:53.795Z,90.20
2018-10-05T00:50:24.418Z,90.20
2018-10-05T00:52:54.168Z,90.20
2018-10-05T00:55:24.228Z,90.20
2018-10-05T00:57:54.836Z,90.10
2018-10-05T01:00:24.098Z,90.10
2018-10-05T01:02:54.721Z,90.10
2018-10-05T01:05:25.250Z,90.10
2018-10-05T01:07:57.910Z,90.00
2018-10-05T01:10:28.653Z,89.80
2018-10-05T01:13:00.626Z,89.60
2018-10-05T01:15:32.477Z,89.60
2018-10-05T01:18:02.208Z,89.80
2018-10-05T01:20:33.021Z,89.80
2018-10-05T01:23:04.001Z,89.70
2018-10-05T01:25:34.445Z,89.90
2018-10-05T01:28:05.611Z,89.90
2018-10-05T01:30:36.301Z,89.60
2018-10-05T01:33:06.945Z,89.40
2018-10-05T01:35:39.204Z,89.50
2018-10-05T01:38:11.346Z,89.30
2018-10-05T01:40:43.229Z,89.30
2018-10-05T01:43:13.172Z,89.60
2018-10-05T01:45:44.189Z,89.80
2018-10-05T01:48:13.608Z,89.70
2018-10-05T01:50:43.672Z,89.70
2018-10-05T01:53:14.036Z,89.80
2018-10-05T01:55:44.909Z,90.00
2018-10-05T01:58:16.328Z,90.10
2018-10-05T02:00:46.749Z,90.00
2018-10-05T02:03:17.225Z,89.70
2018-10-05T02:05:48.015Z,89.80
2018-10-05T02:08:18.781Z,89.60
2018-10-05T02:10:49.879Z,89.60
2018-10-05T02:13:19.649Z,89.80
2018-10-05T02:15:50.137Z,89.50
2018-10-05T02:18:20.782Z,89.40
2018-10-05T02:20:51.441Z,89.50
2018-10-05T02:23:21.591Z,89.60
2018-10-05T02:25:52.881Z,89.20
2018-10-05T02:28:22.461Z,89.40
2018-10-05T02:30:53.717Z,89.60
2018-10-05T02:33:23.321Z,89.20
2018-10-05T02:35:53.425Z,89.60
2018-10-05T02:38:24.205Z,90.00
2018-10-05T02:40:54.380Z,89.70
2018-10-05T02:43:25.081Z,89.80
2018-10-05T02:45:55.565Z,90.10
2018-10-05T02:48:25.561Z,90.00
2018-10-05T02:50:55.453Z,90.10
2018-10-05T02:53:26.221Z,90.10
2018-10-05T02:55:55.416Z,90.10
2018-10-05T02:58:25.508Z,90.20
2018-10-05T03:01:06.665Z,90.30
2018-10-05T03:03:39.432Z,90.30
2018-10-05T03:06:09.194Z,90.10
2018-10-05T03:08:41.021Z,90.10
2018-10-05T03:11:10.541Z,90.10
2018-10-05T03:13:41.404Z,90.10
2018-10-05T03:16:13.521Z,90.10
2018-10-05T03:18:44.265Z,89.90
2018-10-05T03:21:14.976Z,90.00
2018-10-05T03:23:45.301Z,90.00
2018-10-05T03:26:15.139Z,90.00
2018-10-05T03:28:47.360Z,90.10
2018-10-05T03:31:18.880Z,90.10
2018-10-05T03:33:49.684Z,90.00
2018-10-05T03:36:20.020Z,90.10
2018-10-05T03:38:50.769Z,90.00
2018-10-05T03:41:21.251Z,90.00
2018-10-05T03:43:52.242Z,90.00
2018-10-05T03:46:21.889Z,90.00
2018-10-05T03:48:52.356Z,90.10
2018-10-05T03:51:23.162Z,90.10
2018-10-05T03:53:53.345Z,90.00
2018-10-05T03:56:22.564Z,90.10
2018-10-05T03:58:54.021Z,90.10
2018-10-05T04:01:24.691Z,90.00
2018-10-05T04:03:56.202Z,90.10
2018-10-05T04:06:27.725Z,89.90
2018-10-05T04:08:58.750Z,90.00
2018-10-05T04:11:28.761Z,89.70
2018-10-05T04:13:59.490Z,89.50
2018-10-05T04:16:30.020Z,89.40
2018-10-05T04:19:01.040Z,89.10
2018-10-05T04:21:31.586Z,89.10
2018-10-05T04:24:01.785Z,89.20
2018-10-05T04:26:32.784Z,88.80
2018-10-05T04:29:04.242Z,88.60
2018-10-05T04:31:35.079Z,88.20
2018-10-05T04:34:05.632Z,88.00
2018-10-05T04:36:37.152Z,88.00
2018-10-05T04:39:09.477Z,88.00
2018-10-05T04:41:41.760Z,87.70
2018-10-05T04:44:12.686Z,87.70
2018-10-05T04:46:43.677Z,87.60
2018-10-05T04:49:13.429Z,87.30
2018-10-05T04:51:44.168Z,87.50
2018-10-05T04:54:13.954Z,87.30
2018-10-05T04:56:43.601Z,87.10
2018-10-05T04:59:12.833Z,87.10
2018-10-05T05:01:42.787Z,86.70
2018-10-05T05:04:13.458Z,86.70
2018-10-05T05:06:44.232Z,86.60
2018-10-05T05:09:14.175Z,86.40
2018-10-05T05:11:44.969Z,86.30
2018-10-05T05:14:16.336Z,86.20
2018-10-05T05:16:48.296Z,86.10
2018-10-05T05:19:19.200Z,85.80
2018-10-05T05:21:50.149Z,85.70
2018-10-05T05:24:20.753Z,85.50
2018-10-05T05:26:50.530Z,85.60
2018-10-05T05:29:22.215Z,85.60
2018-10-05T05:31:54.465Z,86.00
2018-10-05T05:34:25.842Z,85.60
2018-10-05T05:36:55.601Z,85.80
2018-10-05T05:39:30.305Z,85.60
2018-10-05T05:42:00.114Z,85.00
2018-10-05T05:44:30.985Z,85.40
2018-10-05T05:47:01.094Z,85.40
2018-10-05T05:49:31.849Z,85.40
2018-10-05T05:52:01.011Z,85.20
2018-10-05T05:54:30.941Z,85.30
2018-10-05T05:57:01.129Z,85.30
2018-10-05T05:59:32.609Z,85.30
2018-10-05T06:02:05.320Z,85.10
2018-10-05T06:04:35.996Z,85.20
2018-10-05T06:07:06.434Z,85.20
2018-10-05T06:09:37.918Z,85.20
2018-10-05T06:12:10.292Z,85.00
2018-10-05T06:14:42.133Z,85.00
2018-10-05T06:17:12.045Z,84.80
2018-10-05T06:19:42.055Z,84.60
2018-10-05T06:22:13.509Z,84.50
2018-10-05T06:24:44.350Z,84.50
2018-10-05T06:27:13.295Z,84.80
2018-10-05T06:29:43.887Z,85.00
2018-10-05T06:32:14.861Z,84.80
2018-10-05T06:34:44.237Z,84.60
2018-10-05T06:37:14.721Z,84.60
2018-10-05T06:39:45.287Z,84.50
2018-10-05T06:42:15.605Z,84.40
2018-10-05T06:44:44.795Z,84.30
2018-10-05T06:47:14.593Z,83.90
2018-10-05T06:49:45.635Z,83.60
2018-10-05T06:52:16.179Z,83.40
2018-10-05T06:54:47.465Z,83.20
2018-10-05T06:57:18.193Z,83.20
2018-10-05T06:59:49.874Z,83.00
2018-10-05T07:02:20.995Z,82.80
2018-10-05T07:04:51.497Z,83.00
2018-10-05T07:07:21.305Z,83.30
2018-10-05T07:09:51.233Z,83.40
2018-10-05T07:12:20.915Z,83.60
2018-10-05T07:14:51.509Z,83.50
2018-10-05T07:17:22.229Z,83.40
2018-10-05T07:19:51.883Z,83.20
2018-10-05T07:22:23.469Z,83.80
2018-10-05T07:24:53.843Z,82.90
2018-10-05T07:27:25.225Z,82.70
2018-10-05T07:29:58.688Z,82.50
2018-10-05T07:32:29.426Z,82.70
2018-10-05T07:35:00.524Z,82.90
2018-10-05T07:37:30.787Z,82.90
2018-10-05T07:40:01.911Z,82.70
2018-10-05T07:42:32.591Z,82.60
2018-10-05T07:45:03.395Z,82.30
2018-10-05T07:47:33.202Z,82.10
2018-10-05T07:50:05.502Z,82.50
2018-10-05T07:52:37.859Z,82.20
2018-10-05T07:55:08.362Z,81.80
2018-10-05T07:57:38.984Z,81.70
2018-10-05T08:00:08.105Z,81.40
2018-10-05T08:02:39.012Z,81.20
2018-10-05T08:05:10.077Z,81.00
2018-10-05T08:07:39.010Z,80.40
2018-10-05T08:10:09.328Z,80.00
2018-10-05T08:12:40.911Z,79.30
2018-10-05T08:15:11.441Z,78.80
2018-10-05T08:17:41.529Z,78.00
2018-10-05T08:20:12.664Z,77.60
2018-10-05T08:22:43.630Z,76.80
2018-10-05T08:25:14.861Z,75.90
2018-10-05T08:27:45.505Z,75.60
2018-10-05T08:30:14.285Z,75.10
2018-10-05T08:32:43.580Z,74.80
2018-10-05T08:35:15.067Z,75.00
2018-10-05T08:37:45.981Z,75.60
2018-10-05T08:40:16.576Z,76.00
2018-10-05T08:42:47.973Z,76.50
2018-10-05T08:45:17.819Z,76.70
2018-10-05T08:47:48.539Z,75.80
2018-10-05T08:50:20.003Z,75.60
2018-10-05T08:52:49.769Z,75.40
2018-10-05T08:55:19.737Z,74.40
2018-10-05T08:57:50.465Z,73.50
2018-10-05T09:00:20.855Z,72.90
2018-10-05T09:02:51.371Z,71.00
2018-10-05T09:05:22.047Z,70.60
2018-10-05T09:07:52.149Z,69.50
2018-10-05T09:10:21.213Z,69.00
2018-10-05T09:12:51.689Z,67.60
2018-10-05T09:15:22.201Z,66.90
2018-10-05T09:17:52.788Z,65.30
2018-10-05T09:20:22.757Z,64.80
2018-10-05T09:22:53.077Z,63.20
2018-10-05T09:25:21.935Z,62.70
2018-10-05T09:27:51.927Z,63.20
2018-10-05T09:30:22.510Z,62.90
2018-10-05T09:32:52.949Z,62.90
2018-10-05T09:35:22.449Z,60.50
2018-10-05T09:37:53.341Z,57.70
2018-10-05T09:40:24.997Z,57.00
2018-10-05T09:42:54.096Z,54.60
2018-10-05T09:45:23.864Z,52.30
2018-10-05T09:47:54.505Z,50.80
2018-10-05T09:50:24.353Z,50.70
2018-10-05T09:52:55.749Z,49.30
2018-10-05T09:55:26.319Z,47.40
2018-10-05T09:57:55.989Z,46.30
2018-10-05T10:00:31.605Z,44.90
2018-10-05T10:03:00.421Z,43.50
2018-10-05T10:05:31.347Z,42.40
2018-10-05T10:08:01.794Z,41.50
2018-10-05T10:10:31.537Z,40.00
2018-10-05T10:13:02.029Z,39.30
2018-10-05T10:15:32.111Z,38.60
2018-10-05T10:18:03.996Z,37.80
2018-10-05T10:20:34.508Z,36.70
2018-10-05T10:23:05.538Z,38.20
2018-10-05T10:25:35.518Z,37.90
2018-10-05T10:28:05.103Z,37.80
2018-10-05T10:30:36.164Z,35.40
2018-10-05T10:33:06.664Z,35.30
2018-10-05T10:35:36.324Z,34.20
2018-10-05T10:38:06.195Z,34.20
2018-10-05T10:40:36.386Z,33.50
2018-10-05T10:43:08.042Z,31.70
2018-10-05T10:45:38.721Z,30.70
2018-10-05T10:48:07.677Z,30.00
2018-10-05T10:50:38.607Z,30.40
2018-10-05T10:53:09.647Z,29.20
2018-10-05T10:55:40.616Z,27.90
2018-10-05T10:58:11.837Z,27.00
2018-10-05T11:00:42.308Z,27.70
2018-10-05T11:03:12.569Z,26.30
2018-10-05T11:05:42.407Z,26.60
2018-10-05T11:08:12.783Z,27.00
2018-10-05T11:10:45.020Z,26.80
2018-10-05T11:13:17.481Z,26.40
2018-10-05T11:15:48.179Z,26.40
2018-10-05T11:18:20.086Z,26.50
2018-10-05T11:20:49.955Z,26.70
2018-10-05T11:23:20.131Z,26.40
2018-10-05T11:25:50.960Z,25.80
2018-10-05T11:28:20.798Z,25.90
2018-10-05T11:30:52.332Z,25.80
2018-10-05T11:33:23.690Z,24.90
2018-10-05T11:35:55.130Z,24.40
2018-10-05T11:38:25.734Z,24.80
2018-10-05T11:40:56.690Z,25.40
2018-10-05T11:43:28.435Z,26.10
2018-10-05T11:45:58.014Z,26.40
2018-10-05T11:48:27.860Z,26.90
2018-10-05T11:50:57.450Z,27.20
2018-10-05T11:53:28.236Z,25.90
2018-10-05T11:55:58.827Z,25.60
2018-10-05T11:58:29.991Z,25.40
2018-10-05T12:01:00.825Z,25.10
2018-10-05T12:03:31.387Z,25.30
2018-10-05T12:06:03.817Z,24.80
2018-10-05T12:08:36.588Z,25.20
2018-10-05T12:11:07.326Z,24.50
2018-10-05T12:13:38.725Z,24.90
2018-10-05T12:16:09.793Z,25.40
2018-10-05T12:18:40.126Z,24.60
2018-10-05T12:21:10.230Z,24.20
2018-10-05T12:23:40.142Z,24.60
2018-10-05T12:26:10.038Z,24.90
2018-10-05T12:28:40.734Z,23.70
2018-10-05T12:31:10.932Z,24.70
2018-10-05T12:33:40.878Z,25.00
2018-10-05T12:36:13.568Z,24.60
2018-10-05T12:38:43.688Z,23.60
2018-10-05T12:41:14.130Z,22.60
2018-10-05T12:43:44.950Z,22.90
2018-10-05T12:46:14.850Z,23.80
2018-10-05T12:48:45.836Z,24.20
2018-10-05T12:51:16.669Z,26.40
2018-10-05T12:53:47.685Z,27.80
2018-10-05T12:56:20.327Z,29.10
2018-10-05T12:58:51.375Z,30.10
2018-10-05T13:01:23.624Z,31.40
2018-10-05T13:03:54.031Z,31.70
2018-10-05T13:06:23.790Z,32.10
2018-10-05T13:08:53.597Z,32.80
2018-10-05T13:11:23.606Z,34.30
2018-10-05T13:13:54.875Z,35.20
2018-10-05T13:16:25.581Z,36.00
2018-10-05T13:18:54.540Z,36.60
2018-10-05T13:21:24.815Z,37.20
2018-10-05T13:23:56.757Z,38.40
2018-10-05T13:26:27.732Z,39.00
2018-10-05T13:28:57.855Z,39.70
2018-10-05T13:31:29.324Z,40.50
2018-10-05T13:34:00.198Z,41.00
2018-10-05T13:36:30.473Z,42.30
2018-10-05T13:39:00.364Z,42.30
2018-10-05T13:41:29.880Z,42.80
2018-10-05T13:44:00.332Z,43.80
2018-10-05T13:46:30.305Z,44.30
2018-10-05T13:48:59.202Z,45.50
2018-10-05T13:51:30.961Z,44.80
2018-10-05T13:54:01.609Z,44.70
2018-10-05T13:56:32.283Z,45.10
2018-10-05T13:59:02.861Z,45.40
2018-10-05T14:01:34.737Z,45.50
2018-10-05T14:04:06.072Z,46.10
2018-10-05T14:06:37.408Z,45.90
2018-10-05T14:09:10.904Z,45.90
2018-10-05T14:11:41.454Z,45.80
2018-10-05T14:14:12.523Z,45.70
2018-10-05T14:16:42.721Z,45.60
2018-10-05T14:19:14.973Z,45.40
2018-10-05T14:21:46.297Z,45.30
2018-10-05T14:24:16.190Z,45.10
2018-10-05T14:26:45.552Z,45.60
2018-10-05T14:29:15.302Z,45.30
2018-10-05T14:31:45.117Z,45.60
2018-10-05T14:34:15.500Z,46.70
2018-10-05T14:36:46.180Z,46.30
2018-10-05T14:39:15.430Z,46.90
2018-10-05T14:41:45.383Z,47.30
2018-10-05T14:44:17.100Z,47.70
2018-10-05T14:46:47.734Z,48.10
2018-10-05T14:49:17.484Z,48.20
2018-10-05T14:51:48.098Z,49.10
2018-10-05T14:54:17.592Z,49.00
2018-10-05T14:56:47.394Z,49.30
2018-10-05T14:59:18.266Z,49.60
2018-10-05T15:01:48.308Z,49.70
2018-10-05T15:04:18.858Z,50.20
2018-10-05T15:06:50.462Z,50.00
2018-10-05T15:09:21.483Z,50.40
2018-10-05T15:11:52.227Z,50.50
2018-10-05T15:14:23.223Z,50.90
2018-10-05T15:16:53.775Z,51.10
2018-10-05T15:19:25.376Z,51.60
2018-10-05T15:21:56.479Z,52.20
2018-10-05T15:24:27.161Z,52.30
2018-10-05T15:26:57.769Z,52.60
2018-10-05T15:29:27.465Z,53.00
2018-10-05T15:31:59.182Z,53.30
2018-10-05T15:34:30.105Z,53.50
2018-10-05T15:36:59.985Z,54.00
2018-10-05T15:39:30.715Z,54.10
2018-10-05T15:42:01.093Z,54.20
2018-10-05T15:44:30.987Z,54.10
2018-10-05T15:47:16.655Z,54.50
2018-10-05T15:49:49.186Z,54.80
2018-10-05T15:52:19.269Z,55.20
2018-10-05T15:54:49.560Z,55.50
2018-10-05T15:57:19.880Z,55.50
2018-10-05T15:59:48.813Z,55.00
2018-10-05T16:02:18.990Z,55.00
2018-10-05T16:04:49.128Z,55.00
2018-10-05T16:07:19.169Z,54.80
2018-10-05T16:09:50.127Z,54.50
2018-10-05T16:12:20.441Z,54.70
2018-10-05T16:14:51.556Z,55.10
2018-10-05T16:17:22.917Z,55.40
2018-10-05T16:19:53.812Z,55.50
2018-10-05T16:22:24.940Z,55.80
2018-10-05T16:24:55.920Z,55.80
2018-10-05T16:27:26.899Z,56.00
2018-10-05T16:29:58.419Z,55.90
2018-10-05T16:32:30.952Z,56.00
2018-10-05T16:35:01.638Z,56.10
2018-10-05T16:37:31.348Z,56.20
2018-10-05T16:40:01.243Z,56.50
2018-10-05T16:42:30.421Z,56.50
2018-10-05T16:45:01.607Z,56.70
2018-10-05T16:47:32.246Z,56.20
2018-10-05T16:50:02.952Z,56.20
2018-10-05T16:52:33.124Z,55.40
2018-10-05T16:55:04.131Z,55.30
2018-10-05T16:57:36.113Z,55.40
2018-10-05T17:00:06.678Z,55.60
2018-10-05T17:02:37.938Z,55.80
2018-10-05T17:05:08.306Z,55.80
2018-10-05T17:07:37.958Z,55.10
2018-10-05T17:10:08.824Z,55.30
2018-10-05T17:12:39.857Z,55.70
2018-10-05T17:15:08.909Z,56.00
2018-10-05T17:17:39.665Z,55.80
2018-10-05T17:20:09.898Z,55.70
2018-10-05T17:22:41.145Z,55.70
2018-10-05T17:25:10.450Z,55.30
2018-10-05T17:27:41.289Z,55.40
2018-10-05T17:30:11.476Z,54.40
2018-10-05T17:32:41.440Z,54.60
2018-10-05T17:35:10.447Z,54.30
2018-10-05T17:37:40.460Z,54.80
2018-10-05T17:40:11.375Z,54.50
2018-10-05T17:42:42.952Z,54.60
2018-10-05T17:45:13.414Z,54.80
2018-10-05T17:47:43.682Z,55.30
2018-10-05T17:50:13.735Z,55.90
2018-10-05T17:52:43.573Z,55.70
2018-10-05T17:55:14.917Z,56.00
2018-10-05T17:57:45.324Z,56.50
2018-10-05T18:00:16.415Z,56.80
2018-10-05T18:02:45.635Z,57.00
2018-10-05T18:05:16.261Z,57.30
2018-10-05T18:07:45.906Z,57.60
2018-10-05T18:10:15.357Z,57.90
2018-10-05T18:12:45.471Z,58.20
2018-10-05T18:15:16.948Z,58.30
2018-10-05T18:17:48.046Z,58.50
2018-10-05T18:20:19.099Z,58.80
2018-10-05T18:22:48.773Z,59.00
2018-10-05T18:25:20.444Z,58.90
2018-10-05T18:27:50.756Z,59.10
2018-10-05T18:30:20.937Z,59.30
2018-10-05T18:32:50.250Z,59.40
2018-10-05T18:35:20.245Z,59.30
2018-10-05T18:37:49.423Z,59.50
2018-10-05T18:40:19.010Z,59.70
2018-10-05T18:42:49.326Z,59.70
2018-10-05T18:45:18.683Z,59.90
2018-10-05T18:47:48.341Z,60.10
2018-10-05T18:50:19.383Z,60.30
2018-10-05T18:52:49.882Z,60.50
2018-10-05T18:55:21.136Z,60.90
2018-10-05T18:57:51.585Z,61.00
2018-10-05T19:00:21.408Z,61.20
2018-10-05T19:02:50.692Z,60.80
2018-10-05T19:05:20.657Z,61.10
2018-10-05T19:07:50.893Z,61.40
2018-10-05T19:10:21.479Z,61.10
2018-10-05T19:12:52.383Z,61.10
2018-10-05T19:15:22.838Z,61.00
2018-10-05T19:17:53.705Z,61.30
2018-10-05T19:20:24.256Z,60.60
2018-10-05T19:22:54.281Z,60.20
2018-10-05T19:25:25.150Z,60.00
2018-10-05T19:27:55.275Z,59.40
2018-10-05T19:30:26.605Z,58.70
2018-10-05T19:32:56.349Z,58.60
2018-10-05T19:35:28.274Z,59.20
2018-10-05T19:37:59.110Z,58.70
2018-10-05T19:40:29.144Z,58.90
2018-10-05T19:43:00.153Z,59.40
2018-10-05T19:45:30.006Z,59.60
2018-10-05T19:48:01.474Z,60.00
2018-10-05T19:50:32.945Z,60.10
2018-10-05T19:53:05.351Z,60.40
2018-10-05T19:55:37.546Z,60.50
2018-10-05T19:58:08.167Z,60.50
2018-10-05T20:00:40.159Z,60.50
2018-10-05T20:03:09.105Z,60.70
2018-10-05T20:05:39.972Z,59.80
2018-10-05T20:08:10.853Z,60.50
2018-10-05T20:10:41.075Z,59.90
2018-10-05T20:13:11.201Z,59.90
2018-10-05T20:15:41.242Z,59.40
2018-10-05T20:18:12.020Z,59.10
2018-10-05T20:20:40.913Z,58.60
2018-10-05T20:23:10.686Z,58.50
2018-10-05T20:25:42.844Z,58.80
2018-10-05T20:28:13.344Z,58.60
2018-10-05T20:30:43.687Z,58.00
2018-10-05T20:33:14.409Z,58.10
2018-10-05T20:35:46.790Z,58.10
2018-10-05T20:38:17.633Z,58.10
2018-10-05T20:40:48.230Z,57.90
2018-10-05T20:43:20.189Z,57.80
2018-10-05T20:45:50.358Z,58.00
2018-10-05T20:48:20.056Z,57.70
2018-10-05T20:50:49.886Z,57.90
2018-10-05T20:53:20.424Z,57.40
2018-10-05T20:55:49.949Z,57.40
2018-10-05T20:58:18.742Z,57.50
2018-10-05T21:00:50.472Z,57.60
2018-10-05T21:03:22.110Z,57.50
2018-10-05T21:05:52.718Z,57.60
2018-10-05T21:08:24.884Z,58.10
2018-10-05T21:10:54.351Z,57.80
2018-10-05T21:13:24.240Z,58.10
2018-10-05T21:15:53.940Z,58.10
2018-10-05T21:18:25.196Z,58.30
2018-10-05T21:20:56.961Z,58.80
2018-10-05T21:23:26.985Z,59.00
2018-10-05T21:25:57.763Z,59.30
2018-10-05T21:28:29.480Z,59.70
2018-10-05T21:30:59.853Z,59.80
2018-10-05T21:33:30.602Z,59.70
2018-10-05T21:36:01.148Z,60.20
2018-10-05T21:38:32.443Z,61.10
2018-10-05T21:41:04.031Z,61.30
2018-10-05T21:43:34.408Z,61.90
2018-10-05T21:46:06.212Z,62.10
2018-10-05T21:48:36.759Z,62.00
2018-10-05T21:51:06.987Z,62.20
2018-10-05T21:53:37.794Z,62.10
2018-10-05T21:56:07.723Z,62.60
2018-10-05T21:58:37.594Z,62.70
2018-10-05T22:01:09.916Z,63.00
2018-10-05T22:03:44.616Z,62.90
2018-10-05T22:06:15.249Z,63.20
2018-10-05T22:08:46.098Z,63.50
2018-10-05T22:11:17.399Z,64.00
2018-10-05T22:13:46.503Z,64.30
2018-10-05T22:16:17.176Z,65.00
2018-10-05T22:18:46.895Z,66.00
2018-10-05T22:21:17.049Z,66.60
2018-10-05T22:23:45.938Z,66.70
2018-10-05T22:26:15.605Z,67.40
2018-10-05T22:28:45.723Z,67.50
2018-10-05T22:31:15.395Z,67.90
2018-10-05T22:33:47.910Z,68.10
2018-10-05T22:36:17.686Z,68.60
2018-10-05T22:38:48.762Z,68.60
2018-10-05T22:41:18.740Z,68.80
2018-10-05T22:43:48.412Z,69.50
2018-10-05T22:46:19.880Z,69.60
2018-10-05T22:48:49.264Z,69.80
2018-10-05T22:51:18.574Z,69.90
2018-10-05T22:53:49.381Z,69.70
2018-10-05T22:56:19.909Z,70.00
2018-10-05T22:58:51.202Z,70.00
2018-10-05T23:01:22.206Z,70.50
2018-10-05T23:03:53.184Z,70.30
2018-10-05T23:06:22.182Z,70.50
2018-10-05T23:08:52.856Z,70.60
2018-10-05T23:11:23.082Z,70.80
2018-10-05T23:13:53.651Z,70.80
2018-10-05T23:16:23.238Z,70.90
2018-10-05T23:18:53.052Z,71.00
2018-10-05T23:21:23.980Z,71.20
2018-10-05T23:23:56.337Z,71.10
2018-10-05T23:26:26.775Z,71.30
2018-10-05T23:28:57.332Z,72.00
2018-10-05T23:31:27.913Z,72.00
2018-10-05T23:33:57.743Z,71.80
2018-10-05T23:36:28.200Z,71.90
2018-10-05T23:39:00.892Z,72.00
2018-10-05T23:41:31.669Z,72.20
2018-10-05T23:44:02.391Z,72.50
2018-10-05T23:46:33.581Z,72.60
2018-10-05T23:49:03.323Z,72.80
2018-10-05T23:51:32.901Z,72.80
2018-10-05T23:54:03.631Z,72.60
2018-10-05T23:56:34.021Z,72.90
2018-10-05T23:59:05.461Z,73.20
